sensor_id;sensor_type;location;lat;lon;timestamp;P1;P4;P2;P0;N10;N4;N25;N1;N05;TS
82394;SPS30;72031;51.786;4.662;2023-09-19T00:02:01;3.91;3.75;3.44;2.90;23.19;23.16;23.09;22.67;18.98;0.59
82394;SPS30;72031;51.786;4.662;2023-09-19T00:04:31;3.33;3.21;2.94;2.49;19.91;19.89;19.83;19.48;16.32;0.60
82394;SPS30;72031;51.786;4.662;2023-09-19T00:06:59;3.18;3.08;2.85;2.45;19.57;19.55;19.49;19.20;16.15;0.59
82394;SPS30;72031;51.786;4.662;2023-09-19T00:09:28;2.96;2.84;2.58;2.16;17.24;17.22;17.16;16.83;14.05;0.61
82394;SPS30;72031;51.786;4.662;2023-09-19T00:11:55;3.05;2.92;2.66;2.21;17.70;17.68;17.62;17.27;14.41;0.61
82394;SPS30;72031;51.786;4.662;2023-09-19T00:14:20;2.88;2.76;2.52;2.10;16.81;16.79;16.73;16.41;13.70;0.61
82394;SPS30;72031;51.786;4.662;2023-09-19T00:16:49;3.08;2.94;2.66;2.20;17.61;17.59;17.52;17.16;14.28;0.61
82394;SPS30;72031;51.786;4.662;2023-09-19T00:19:15;2.88;2.76;2.51;2.09;16.73;16.71;16.65;16.33;13.62;0.60
82394;SPS30;72031;51.786;4.662;2023-09-19T00:21:41;3.35;3.21;2.93;2.46;19.66;19.64;19.57;19.20;16.04;0.60
82394;SPS30;72031;51.786;4.662;2023-09-19T00:24:07;4.04;3.88;3.54;2.97;23.77;23.74;23.66;23.22;19.41;0.61
82394;SPS30;72031;51.786;4.662;2023-09-19T00:26:34;3.62;3.50;3.23;2.76;22.06;22.05;21.98;21.63;18.17;0.61
82394;SPS30;72031;51.786;4.662;2023-09-19T00:28:59;4.09;3.94;3.63;3.09;24.69;24.67;24.59;24.18;20.29;0.61
82394;SPS30;72031;51.786;4.662;2023-09-19T00:31:33;4.05;3.90;3.60;3.07;24.54;24.52;24.45;24.05;20.19;0.61
82394;SPS30;72031;51.786;4.662;2023-09-19T00:33:59;4.35;4.18;3.84;3.24;25.92;25.90;25.81;25.36;21.24;0.62
82394;SPS30;72031;51.786;4.662;2023-09-19T00:36:29;3.87;3.74;3.49;3.01;24.07;24.05;23.99;23.64;19.92;0.59
82394;SPS30;72031;51.786;4.662;2023-09-19T00:38:54;3.94;3.79;3.49;2.96;23.64;23.62;23.54;23.14;19.40;0.62
82394;SPS30;72031;51.786;4.662;2023-09-19T00:41:20;4.17;4.00;3.66;3.08;24.65;24.63;24.54;24.10;20.16;0.63
82394;SPS30;72031;51.786;4.662;2023-09-19T00:43:46;4.12;3.95;3.58;2.98;23.78;23.75;23.66;23.19;19.32;0.64
82394;SPS30;72031;51.786;4.662;2023-09-19T00:46:14;3.93;3.76;3.41;2.83;22.61;22.58;22.49;22.04;18.36;0.64
82394;SPS30;72031;51.786;4.662;2023-09-19T00:48:42;4.33;4.16;3.79;3.18;25.38;25.36;25.27;24.79;20.71;0.63
82394;SPS30;72031;51.786;4.662;2023-09-19T00:51:08;4.18;4.01;3.65;3.05;24.36;24.34;24.25;23.78;19.85;0.63
82394;SPS30;72031;51.786;4.662;2023-09-19T00:53:35;4.11;3.91;3.49;2.82;22.56;22.53;22.43;21.89;18.10;0.65
82394;SPS30;72031;51.786;4.662;2023-09-19T00:56:02;4.29;4.02;3.46;2.64;21.14;21.10;20.97;20.28;16.45;0.69
82394;SPS30;72031;51.786;4.662;2023-09-19T00:58:33;4.72;4.36;3.62;2.60;20.80;20.75;20.58;19.68;15.60;0.72
82394;SPS30;72031;51.786;4.662;2023-09-19T01:01:00;4.54;4.18;3.45;2.44;19.50;19.45;19.28;18.39;14.49;0.72
82394;SPS30;72031;51.786;4.662;2023-09-19T01:03:27;5.44;4.97;4.02;2.73;21.82;21.76;21.54;20.39;15.79;0.73
82394;SPS30;72031;51.786;4.662;2023-09-19T01:05:52;5.41;4.95;4.01;2.74;21.90;21.84;21.62;20.49;15.90;0.72
82394;SPS30;72031;51.786;4.662;2023-09-19T01:08:18;5.85;5.37;4.38;3.04;24.32;24.26;24.02;22.83;17.84;0.71
82394;SPS30;72031;51.786;4.662;2023-09-19T01:10:46;6.35;5.79;4.65;3.12;25.00;24.93;24.66;23.30;17.95;0.74
82394;SPS30;72031;51.786;4.662;2023-09-19T01:13:29;5.38;4.89;3.89;2.56;20.53;20.47;20.24;19.04;14.55;0.77
82394;SPS30;72031;51.786;4.662;2023-09-19T01:21:57;5.60;5.12;4.15;2.83;22.66;22.60;22.37;21.20;16.46;0.71
82394;SPS30;72031;51.786;4.662;2023-09-19T01:24:49;4.94;4.54;3.70;2.56;20.52;20.47;20.27;19.26;15.05;0.71
82394;SPS30;72031;51.786;4.662;2023-09-19T01:30:24;5.52;5.05;4.09;2.78;22.24;22.18;21.95;20.79;16.12;0.74
82394;SPS30;72031;51.786;4.662;2023-09-19T01:32:52;5.16;4.74;3.88;2.70;21.58;21.52;21.32;20.28;15.87;0.71
82394;SPS30;72031;51.786;4.662;2023-09-19T01:35:19;5.21;4.79;3.92;2.74;21.92;21.87;21.66;20.62;16.16;0.71
82394;SPS30;72031;51.786;4.662;2023-09-19T01:37:45;5.36;4.93;4.04;2.83;22.68;22.63;22.42;21.35;16.76;0.72
82394;SPS30;72031;51.786;4.662;2023-09-19T01:40:14;5.92;5.45;4.48;3.14;25.14;25.08;24.85;23.67;18.60;0.72
82394;SPS30;72031;51.786;4.662;2023-09-19T01:48:15;5.16;4.80;4.07;3.02;24.13;24.09;23.91;23.01;18.47;0.69
82394;SPS30;72031;51.786;4.662;2023-09-19T01:51:04;5.36;4.97;4.17;3.05;24.41;24.36;24.17;23.19;18.51;0.70
82394;SPS30;72031;51.786;4.662;2023-09-19T01:56:04;5.36;4.95;4.11;2.94;23.52;23.47;23.26;22.24;17.60;0.73
82394;SPS30;72031;51.786;4.662;2023-09-19T01:58:39;4.95;4.58;3.83;2.78;22.21;22.17;21.98;21.07;16.76;0.72
82394;SPS30;72031;51.786;4.662;2023-09-19T02:01:10;5.39;4.98;4.14;2.97;23.76;23.71;23.51;22.49;17.83;0.72
82394;SPS30;72031;51.786;4.662;2023-09-19T02:03:41;5.11;4.70;3.87;2.72;21.74;21.69;21.49;20.48;16.09;0.73
82394;SPS30;72031;51.786;4.662;2023-09-19T02:06:13;5.18;4.75;3.86;2.65;21.19;21.14;20.92;19.85;15.45;0.73
82394;SPS30;72031;51.786;4.662;2023-09-19T02:08:39;5.38;4.93;4.00;2.74;21.96;21.91;21.68;20.57;16.00;0.72
82394;SPS30;72031;51.786;4.662;2023-09-19T02:11:04;5.36;4.89;3.93;2.64;21.16;21.10;20.87;19.72;15.21;0.74
82394;SPS30;72031;51.786;4.662;2023-09-19T02:13:31;5.67;5.20;4.24;2.92;23.40;23.34;23.11;21.95;17.12;0.72
82394;SPS30;72031;51.786;4.662;2023-09-19T02:15:56;6.15;5.60;4.49;3.00;23.99;23.92;23.66;22.32;17.16;0.75
82394;SPS30;72031;51.786;4.662;2023-09-19T02:18:22;5.62;5.13;4.13;2.78;22.23;22.17;21.93;20.73;15.99;0.75
82394;SPS30;72031;51.786;4.662;2023-09-19T02:20:48;5.26;4.83;3.94;2.72;21.79;21.74;21.52;20.45;15.97;0.73
82394;SPS30;72031;51.786;4.662;2023-09-19T02:23:14;5.72;5.28;4.38;3.12;25.00;24.95;24.73;23.63;18.69;0.71
82394;SPS30;72031;51.786;4.662;2023-09-19T02:25:40;5.31;4.91;4.08;2.93;23.42;23.37;23.17;22.17;17.56;0.70
82394;SPS30;72031;51.786;4.662;2023-09-19T02:28:06;5.23;4.85;4.08;2.99;23.93;23.88;23.69;22.75;18.18;0.67
82394;SPS30;72031;51.786;4.662;2023-09-19T02:30:34;5.13;4.77;4.03;2.98;23.86;23.81;23.64;22.73;18.23;0.69
82394;SPS30;72031;51.786;4.662;2023-09-19T02:33:01;5.33;4.89;3.99;2.76;22.07;22.02;21.80;20.72;16.18;0.73
82394;SPS30;72031;51.786;4.662;2023-09-19T02:35:27;5.77;5.27;4.24;2.85;22.84;22.78;22.54;21.30;16.44;0.74
82394;SPS30;72031;51.786;4.662;2023-09-19T02:37:53;5.25;4.80;3.89;2.66;21.30;21.25;21.03;19.94;15.49;0.73
82394;SPS30;72031;51.786;4.662;2023-09-19T02:40:18;4.88;4.50;3.72;2.64;21.10;21.05;20.86;19.92;15.71;0.71
82394;SPS30;72031;51.786;4.662;2023-09-19T02:42:47;4.78;4.40;3.62;2.55;20.40;20.36;20.17;19.23;15.12;0.72
82394;SPS30;72031;51.786;4.662;2023-09-19T02:45:15;5.11;4.69;3.84;2.67;21.40;21.35;21.15;20.12;15.75;0.72
82394;SPS30;72031;51.786;4.662;2023-09-19T02:47:45;4.83;4.45;3.67;2.60;20.80;20.75;20.56;19.62;15.46;0.70
82394;SPS30;72031;51.786;4.662;2023-09-19T02:50:12;5.12;4.73;3.93;2.82;22.59;22.54;22.35;21.39;16.95;0.70
82394;SPS30;72031;51.786;4.662;2023-09-19T02:52:38;5.22;4.81;3.98;2.82;22.59;22.54;22.34;21.33;16.84;0.71
82394;SPS30;72031;51.786;4.662;2023-09-19T02:55:11;5.69;5.22;4.26;2.95;23.57;23.51;23.28;22.12;17.27;0.73
82394;SPS30;72031;51.786;4.662;2023-09-19T02:57:39;4.95;4.53;3.67;2.51;20.08;20.03;19.82;18.79;14.59;0.73
82394;SPS30;72031;51.786;4.662;2023-09-19T03:00:08;5.06;4.64;3.76;2.58;20.66;20.61;20.40;19.35;15.05;0.73
82394;SPS30;72031;51.786;4.662;2023-09-19T03:02:35;5.50;5.00;4.00;2.65;21.23;21.17;20.93;19.72;15.12;0.74
82394;SPS30;72031;51.786;4.662;2023-09-19T03:05:03;5.45;4.96;3.98;2.65;21.25;21.19;20.95;19.77;15.20;0.74
82394;SPS30;72031;51.786;4.662;2023-09-19T03:07:28;6.18;5.60;4.42;2.84;22.78;22.71;22.42;21.01;15.89;0.78
82394;SPS30;72031;51.786;4.662;2023-09-19T03:09:54;5.48;4.99;3.99;2.65;21.21;21.15;20.91;19.71;15.12;0.74
82394;SPS30;72031;51.786;4.662;2023-09-19T03:12:20;5.76;5.26;4.25;2.88;23.05;22.99;22.75;21.53;16.66;0.74
82394;SPS30;72031;51.786;4.662;2023-09-19T03:14:45;4.84;4.44;3.62;2.50;20.00;19.95;19.75;18.76;14.64;0.73
82394;SPS30;72031;51.786;4.662;2023-09-19T03:17:11;5.61;5.13;4.13;2.79;22.33;22.28;22.04;20.84;16.11;0.74
82394;SPS30;72031;51.786;4.662;2023-09-19T03:19:39;5.12;4.68;3.79;2.58;20.68;20.63;20.42;19.35;15.01;0.74
82394;SPS30;72031;51.786;4.662;2023-09-19T03:22:04;5.24;4.80;3.90;2.67;21.39;21.34;21.13;20.04;15.59;0.72
82394;SPS30;72031;51.786;4.662;2023-09-19T03:24:30;5.29;4.85;3.95;2.73;21.84;21.79;21.57;20.49;15.98;0.71
82394;SPS30;72031;51.786;4.662;2023-09-19T03:26:58;4.95;4.57;3.80;2.72;21.73;21.68;21.49;20.55;16.26;0.70
82394;SPS30;72031;51.786;4.662;2023-09-19T03:29:23;5.10;4.69;3.84;2.69;21.50;21.45;21.25;20.23;15.86;0.73
82394;SPS30;72031;51.786;4.662;2023-09-19T03:31:49;5.37;4.92;4.00;2.75;21.97;21.92;21.70;20.58;16.02;0.75
82394;SPS30;72031;51.786;4.662;2023-09-19T03:34:14;4.94;4.53;3.70;2.57;20.55;20.50;20.30;19.30;15.09;0.74
82394;SPS30;72031;51.786;4.662;2023-09-19T03:36:40;4.10;3.80;3.19;2.33;18.61;18.58;18.43;17.68;14.10;0.70
82394;SPS30;72031;51.786;4.662;2023-09-19T03:39:06;4.42;4.11;3.48;2.59;20.70;20.67;20.51;19.74;15.85;0.69
82394;SPS30;72031;51.786;4.662;2023-09-19T03:41:31;4.56;4.25;3.61;2.70;21.60;21.56;21.40;20.62;16.59;0.68
82394;SPS30;72031;51.786;4.662;2023-09-19T03:43:58;4.95;4.57;3.80;2.73;21.80;21.76;21.57;20.64;16.35;0.71
82394;SPS30;72031;51.786;4.662;2023-09-19T03:46:24;4.87;4.49;3.72;2.66;21.24;21.20;21.01;20.08;15.87;0.71
82394;SPS30;72031;51.786;4.662;2023-09-19T03:48:50;5.30;4.88;4.02;2.83;22.66;22.61;22.40;21.36;16.81;0.71
82394;SPS30;72031;51.786;4.662;2023-09-19T03:51:15;5.69;5.23;4.30;3.02;24.16;24.11;23.88;22.76;17.88;0.72
82394;SPS30;72031;51.786;4.662;2023-09-19T03:53:41;5.40;5.01;4.19;3.05;24.41;24.36;24.17;23.18;18.47;0.68
82394;SPS30;72031;51.786;4.662;2023-09-19T03:56:06;4.65;4.31;3.62;2.66;21.26;21.22;21.05;20.21;16.15;0.70
82394;SPS30;72031;51.786;4.662;2023-09-19T03:58:33;4.76;4.41;3.68;2.66;21.27;21.23;21.05;20.17;16.03;0.70
82394;SPS30;72031;51.786;4.662;2023-09-19T04:01:03;4.88;4.51;3.75;2.69;21.51;21.46;21.28;20.36;16.13;0.70
82394;SPS30;72031;51.786;4.662;2023-09-19T04:03:28;5.25;4.86;4.07;2.97;23.73;23.68;23.49;22.53;17.96;0.71
82394;SPS30;72031;51.786;4.662;2023-09-19T04:05:59;4.85;4.49;3.75;2.71;21.68;21.64;21.46;20.56;16.34;0.71
82394;SPS30;72031;51.786;4.662;2023-09-19T04:08:26;5.49;5.08;4.23;3.05;24.39;24.34;24.14;23.11;18.34;0.70
82394;SPS30;72031;51.786;4.662;2023-09-19T04:10:51;5.24;4.83;3.98;2.81;22.45;22.40;22.20;21.17;16.66;0.72
82394;SPS30;72031;51.786;4.662;2023-09-19T04:13:17;4.99;4.59;3.77;2.64;21.15;21.10;20.90;19.91;15.63;0.72
82394;SPS30;72031;51.786;4.662;2023-09-19T04:15:43;5.65;5.18;4.20;2.88;23.06;23.00;22.77;21.59;16.80;0.73
82394;SPS30;72031;51.786;4.662;2023-09-19T04:18:08;5.73;5.26;4.27;2.94;23.54;23.48;23.24;22.06;17.19;0.72
82394;SPS30;72031;51.786;4.662;2023-09-19T04:20:34;4.86;4.52;3.83;2.84;22.73;22.69;22.52;21.67;17.39;0.67
82394;SPS30;72031;51.786;4.662;2023-09-19T04:22:59;4.63;4.33;3.73;2.85;22.82;22.79;22.64;21.90;17.77;0.65
82394;SPS30;72031;51.786;4.662;2023-09-19T04:25:25;4.64;4.32;3.67;2.74;21.88;21.84;21.68;20.89;16.79;0.68
82394;SPS30;72031;51.786;4.662;2023-09-19T04:27:51;4.81;4.50;3.85;2.92;23.36;23.32;23.16;22.37;18.09;0.67
82394;SPS30;72031;51.786;4.662;2023-09-19T04:30:17;4.98;4.65;3.95;2.96;23.65;23.61;23.44;22.59;18.19;0.70
82394;SPS30;72031;51.786;4.662;2023-09-19T04:32:43;4.78;4.45;3.77;2.81;22.48;22.44;22.27;21.45;17.24;0.69
82394;SPS30;72031;51.786;4.662;2023-09-19T04:35:08;5.10;4.75;4.03;3.00;24.00;23.96;23.78;22.90;18.41;0.69
82394;SPS30;72031;51.786;4.662;2023-09-19T04:37:38;4.63;4.34;3.74;2.86;22.90;22.87;22.72;21.98;17.84;0.67
82394;SPS30;72031;51.786;4.662;2023-09-19T04:40:06;4.87;4.53;3.85;2.88;23.02;22.98;22.81;21.98;17.68;0.67
82394;SPS30;72031;51.786;4.662;2023-09-19T04:42:37;5.62;5.21;4.37;3.19;25.53;25.48;25.28;24.26;19.35;0.70
82394;SPS30;72031;51.786;4.662;2023-09-19T04:45:03;5.64;5.20;4.32;3.09;24.71;24.66;24.44;23.37;18.49;0.72
82394;SPS30;72031;51.786;4.662;2023-09-19T04:47:30;5.80;5.33;4.37;3.05;24.43;24.37;24.14;22.98;18.02;0.75
82394;SPS30;72031;51.786;4.662;2023-09-19T04:49:55;5.54;5.09;4.17;2.91;23.29;23.23;23.01;21.90;17.16;0.74
82394;SPS30;72031;51.786;4.662;2023-09-19T04:52:21;5.89;5.37;4.31;2.89;23.13;23.07;22.82;21.55;16.60;0.77
82394;SPS30;72031;51.786;4.662;2023-09-19T04:54:47;6.09;5.58;4.52;3.08;24.67;24.61;24.35;23.08;17.92;0.75
82394;SPS30;72031;51.786;4.662;2023-09-19T04:57:13;6.04;5.56;4.58;3.23;25.83;25.77;25.54;24.35;19.16;0.72
82394;SPS30;72031;51.786;4.662;2023-09-19T04:59:39;5.06;4.67;3.88;2.77;22.19;22.15;21.96;20.99;16.62;0.71
82394;SPS30;72031;51.786;4.662;2023-09-19T05:02:06;5.94;5.46;4.48;3.13;25.08;25.02;24.78;23.60;18.52;0.74
82394;SPS30;72031;51.786;4.662;2023-09-19T05:04:33;5.76;5.31;4.38;3.11;24.89;24.83;24.61;23.49;18.53;0.72
82394;SPS30;72031;51.786;4.662;2023-09-19T05:06:58;6.33;5.80;4.72;3.24;25.96;25.90;25.64;24.33;18.96;0.74
82394;SPS30;72031;51.786;4.662;2023-09-19T05:09:26;6.06;5.55;4.52;3.11;24.91;24.85;24.60;23.36;18.20;0.73
82394;SPS30;72031;51.786;4.662;2023-09-19T05:11:51;6.10;5.61;4.62;3.26;26.11;26.06;25.82;24.62;19.38;0.71
82394;SPS30;72031;51.786;4.662;2023-09-19T05:14:18;5.87;5.41;4.48;3.18;25.47;25.41;25.18;24.05;18.99;0.72
82394;SPS30;72031;51.786;4.662;2023-09-19T05:16:44;5.65;5.19;4.26;2.98;23.85;23.79;23.57;22.44;17.60;0.72
82394;SPS30;72031;51.786;4.662;2023-09-19T05:19:09;5.99;5.52;4.55;3.21;25.71;25.65;25.42;24.25;19.10;0.71
82394;SPS30;72031;51.786;4.662;2023-09-19T05:21:36;5.17;4.76;3.91;2.75;21.98;21.92;21.72;20.70;16.26;0.73
82394;SPS30;72031;51.786;4.662;2023-09-19T05:24:04;6.31;5.79;4.70;3.23;25.84;25.78;25.52;24.22;18.85;0.75
82394;SPS30;72031;51.786;4.662;2023-09-19T05:26:31;5.91;5.43;4.46;3.12;24.98;24.92;24.69;23.51;18.45;0.72
82394;SPS30;72031;51.786;4.662;2023-09-19T05:28:57;6.09;5.59;4.57;3.16;25.32;25.26;25.01;23.78;18.58;0.71
82394;SPS30;72031;51.786;4.662;2023-09-19T05:31:23;6.09;5.61;4.62;3.27;26.15;26.10;25.86;24.67;19.43;0.72
82394;SPS30;72031;51.786;4.662;2023-09-19T05:33:49;5.46;5.05;4.21;3.03;24.27;24.22;24.02;23.00;18.26;0.71
82394;SPS30;72031;51.786;4.662;2023-09-19T05:36:15;5.85;5.38;4.41;3.08;24.61;24.56;24.32;23.15;18.14;0.73
82394;SPS30;72031;51.786;4.662;2023-09-19T05:38:42;5.33;4.91;4.05;2.86;22.88;22.83;22.62;21.58;17.00;0.72
82394;SPS30;72031;51.786;4.662;2023-09-19T05:41:09;6.04;5.56;4.55;3.18;25.43;25.38;25.13;23.92;18.75;0.73
82394;SPS30;72031;51.786;4.662;2023-09-19T05:43:38;6.26;5.74;4.66;3.20;25.63;25.56;25.31;24.01;18.70;0.73
82394;SPS30;72031;51.786;4.662;2023-09-19T05:46:06;5.79;5.32;4.35;3.02;24.15;24.09;23.86;22.69;17.74;0.73
82394;SPS30;72031;51.786;4.662;2023-09-19T05:48:33;6.39;5.84;4.71;3.19;25.52;25.46;25.19;23.83;18.44;0.77
82394;SPS30;72031;51.786;4.662;2023-09-19T05:50:59;6.55;5.96;4.75;3.14;25.10;25.03;24.75;23.30;17.82;0.78
82394;SPS30;72031;51.786;4.662;2023-09-19T05:53:26;6.48;5.90;4.70;3.11;24.89;24.82;24.53;23.10;17.68;0.77
82394;SPS30;72031;51.786;4.662;2023-09-19T05:55:51;6.41;5.82;4.60;2.99;23.94;23.87;23.58;22.13;16.81;0.78
82394;SPS30;72031;51.786;4.662;2023-09-19T05:58:18;6.71;6.09;4.84;3.17;25.37;25.30;25.00;23.50;17.91;0.78
82394;SPS30;72031;51.786;4.662;2023-09-19T06:00:45;6.32;5.79;4.68;3.18;25.47;25.40;25.14;23.81;18.46;0.75
82394;SPS30;72031;51.786;4.662;2023-09-19T06:03:13;6.00;5.49;4.44;3.02;24.14;24.08;23.83;22.56;17.49;0.75
82394;SPS30;72031;51.786;4.662;2023-09-19T06:05:39;7.16;6.51;5.18;3.41;27.30;27.22;26.90;25.31;19.34;0.77
82394;SPS30;72031;51.786;4.662;2023-09-19T06:08:06;6.86;6.24;4.95;3.23;25.88;25.80;25.49;23.95;18.24;0.78
82394;SPS30;72031;51.786;4.662;2023-09-19T06:10:35;5.81;5.32;4.32;2.95;23.65;23.59;23.35;22.14;17.21;0.73
82394;SPS30;72031;51.786;4.662;2023-09-19T06:13:04;6.64;6.04;4.82;3.18;25.49;25.42;25.13;23.66;18.11;0.75
82394;SPS30;72031;51.786;4.662;2023-09-19T06:15:31;6.64;6.07;4.89;3.31;26.53;26.46;26.18;24.77;19.17;0.74
82394;SPS30;72031;51.786;4.662;2023-09-19T06:17:58;5.65;5.19;4.24;2.94;23.55;23.50;23.27;22.13;17.30;0.74
82394;SPS30;72031;51.786;4.662;2023-09-19T06:20:27;6.17;5.64;4.54;3.07;24.60;24.54;24.28;22.97;17.76;0.75
82394;SPS30;72031;51.786;4.662;2023-09-19T06:22:53;5.86;5.37;4.37;3.02;24.14;24.08;23.84;22.64;17.66;0.72
82394;SPS30;72031;51.786;4.662;2023-09-19T06:25:19;6.01;5.49;4.42;2.98;23.87;23.81;23.55;22.27;17.20;0.73
82394;SPS30;72031;51.786;4.662;2023-09-19T06:27:46;5.93;5.40;4.31;2.86;22.86;22.80;22.54;21.24;16.27;0.74
82394;SPS30;72031;51.786;4.662;2023-09-19T06:30:12;5.62;5.14;4.13;2.79;22.30;22.24;22.00;20.80;16.06;0.73
82394;SPS30;72031;51.786;4.662;2023-09-19T06:32:38;6.73;6.10;4.79;3.07;24.60;24.52;24.21;22.66;17.09;0.76
82394;SPS30;72031;51.786;4.662;2023-09-19T06:35:05;6.42;5.83;4.61;3.00;24.03;23.96;23.67;22.22;16.89;0.75
82394;SPS30;72031;51.786;4.662;2023-09-19T06:37:36;6.25;5.67;4.47;2.88;23.05;22.98;22.69;21.26;16.08;0.77
82394;SPS30;72031;51.786;4.662;2023-09-19T06:40:04;6.78;6.14;4.81;3.06;24.50;24.43;24.11;22.53;16.94;0.79
82394;SPS30;72031;51.786;4.662;2023-09-19T06:42:34;7.45;6.72;5.21;3.25;26.00;25.92;25.56;23.78;17.68;0.81
82394;SPS30;72031;51.786;4.662;2023-09-19T06:45:02;8.18;7.36;5.66;3.46;27.69;27.59;27.19;25.18;18.53;0.82
82394;SPS30;72031;51.786;4.662;2023-09-19T06:47:29;6.88;6.21;4.84;3.04;24.34;24.26;23.93;22.30;16.66;0.81
82394;SPS30;72031;51.786;4.662;2023-09-19T06:49:55;6.75;6.15;4.92;3.27;26.14;26.07;25.77;24.30;18.64;0.77
82394;SPS30;72031;51.786;4.662;2023-09-19T06:52:20;6.78;6.18;4.95;3.30;26.41;26.34;26.05;24.57;18.88;0.77
82394;SPS30;72031;51.786;4.662;2023-09-19T06:54:46;6.94;6.28;4.92;3.14;25.13;25.06;24.73;23.12;17.40;0.80
82394;SPS30;72031;51.786;4.662;2023-09-19T06:57:15;7.53;6.76;5.20;3.16;25.34;25.25;24.88;23.02;16.91;0.82
82394;SPS30;72031;51.786;4.662;2023-09-19T06:59:41;7.70;6.91;5.30;3.20;25.63;25.53;25.15;23.24;17.00;0.82
82394;SPS30;72031;51.786;4.662;2023-09-19T07:02:06;7.47;6.72;5.19;3.19;25.54;25.45;25.09;23.27;17.19;0.80
82394;SPS30;72031;51.786;4.662;2023-09-19T07:04:33;6.63;6.00;4.72;3.02;24.19;24.12;23.81;22.28;16.80;0.79
82394;SPS30;72031;51.786;4.662;2023-09-19T07:06:59;6.12;5.57;4.46;2.96;23.68;23.62;23.35;22.01;16.89;0.75
82394;SPS30;72031;51.786;4.662;2023-09-19T07:09:24;6.51;5.92;4.71;3.11;24.86;24.79;24.50;23.06;17.63;0.75
82394;SPS30;72031;51.786;4.662;2023-09-19T07:11:52;6.22;5.64;4.46;2.88;23.10;23.03;22.75;21.33;16.17;0.78
82394;SPS30;72031;51.786;4.662;2023-09-19T07:14:18;6.88;6.25;4.95;3.23;25.84;25.76;25.45;23.90;18.18;0.77
82394;SPS30;72031;51.786;4.662;2023-09-19T07:16:44;6.42;5.83;4.63;3.02;24.21;24.14;23.85;22.42;17.07;0.76
82394;SPS30;72031;51.786;4.662;2023-09-19T07:19:10;7.34;6.63;5.16;3.24;25.95;25.86;25.52;23.77;17.75;0.79
82394;SPS30;72031;51.786;4.662;2023-09-19T07:21:36;7.28;6.57;5.11;3.19;25.55;25.47;25.12;23.38;17.42;0.78
82394;SPS30;72031;51.786;4.662;2023-09-19T07:24:03;6.83;6.18;4.85;3.10;24.82;24.74;24.43;22.84;17.20;0.78
82394;SPS30;72031;51.786;4.662;2023-09-19T07:26:29;7.46;6.72;5.19;3.20;25.65;25.56;25.20;23.39;17.31;0.80
82394;SPS30;72031;51.786;4.662;2023-09-19T07:28:56;7.28;6.55;5.06;3.10;24.87;24.78;24.43;22.65;16.73;0.81
82394;SPS30;72031;51.786;4.662;2023-09-19T07:31:22;7.02;6.35;4.97;3.15;25.19;25.11;24.79;23.14;17.36;0.80
82394;SPS30;72031;51.786;4.662;2023-09-19T07:33:48;6.83;6.16;4.79;2.99;23.92;23.85;23.52;21.89;16.29;0.79
82394;SPS30;72031;51.786;4.662;2023-09-19T07:36:14;7.59;6.82;5.24;3.19;25.53;25.43;25.06;23.19;17.03;0.80
82394;SPS30;72031;51.786;4.662;2023-09-19T07:38:40;7.44;6.73;5.27;3.34;26.77;26.69;26.34;24.60;18.47;0.77
82394;SPS30;72031;51.786;4.662;2023-09-19T07:41:06;6.68;6.06;4.77;3.07;24.63;24.55;24.25;22.72;17.18;0.76
82394;SPS30;72031;51.786;4.662;2023-09-19T07:43:34;7.42;6.69;5.18;3.21;25.74;25.65;25.29;23.50;17.44;0.79
82394;SPS30;72031;51.786;4.662;2023-09-19T07:46:04;7.06;6.38;4.97;3.13;25.04;24.96;24.63;22.95;17.16;0.80
82394;SPS30;72031;51.786;4.662;2023-09-19T07:48:32;6.88;6.18;4.75;2.89;23.14;23.06;22.72;21.02;15.44;0.81
82394;SPS30;72031;51.786;4.662;2023-09-19T07:51:02;6.69;6.07;4.80;3.12;24.96;24.88;24.58;23.07;17.51;0.74
82394;SPS30;72031;51.786;4.662;2023-09-19T07:53:28;5.88;5.36;4.28;2.84;22.78;22.71;22.46;21.17;16.24;0.73
82394;SPS30;72031;51.786;4.662;2023-09-19T07:56:01;6.73;6.13;4.89;3.23;25.88;25.81;25.51;24.03;18.40;0.76
82394;SPS30;72031;51.786;4.662;2023-09-19T07:58:29;6.86;6.23;4.94;3.23;25.88;25.81;25.50;23.96;18.25;0.77
82394;SPS30;72031;51.786;4.662;2023-09-19T08:00:54;6.87;6.24;4.94;3.22;25.77;25.69;25.38;23.83;18.12;0.77
82394;SPS30;72031;51.786;4.662;2023-09-19T08:03:20;7.17;6.49;5.09;3.25;26.00;25.92;25.59;23.93;18.01;0.79
82394;SPS30;72031;51.786;4.662;2023-09-19T08:05:45;7.18;6.49;5.08;3.22;25.82;25.74;25.41;23.73;17.82;0.81
82394;SPS30;72031;51.786;4.662;2023-09-19T08:08:11;6.18;5.64;4.53;3.03;24.28;24.21;23.95;22.61;17.41;0.77
82394;SPS30;72031;51.786;4.662;2023-09-19T08:10:39;6.54;5.96;4.77;3.18;25.48;25.41;25.13;23.71;18.22;0.77
82394;SPS30;72031;51.786;4.662;2023-09-19T08:13:07;6.72;6.12;4.88;3.23;25.84;25.77;25.47;23.99;18.37;0.77
82394;SPS30;72031;51.786;4.662;2023-09-19T08:15:42;6.52;5.96;4.80;3.25;25.99;25.93;25.65;24.26;18.76;0.74
82394;SPS30;72031;51.786;4.662;2023-09-19T08:18:09;5.80;5.32;4.34;3.00;23.98;23.92;23.68;22.50;17.55;0.72
82394;SPS30;72031;51.786;4.662;2023-09-19T08:20:37;6.38;5.81;4.62;3.04;24.34;24.27;23.99;22.57;17.24;0.74
82394;SPS30;72031;51.786;4.662;2023-09-19T08:23:03;6.33;5.72;4.46;2.80;22.46;22.39;22.09;20.59;15.40;0.77
82394;SPS30;72031;51.786;4.662;2023-09-19T08:25:29;7.06;6.35;4.90;3.00;24.01;23.92;23.58;21.85;16.11;0.80
82394;SPS30;72031;51.786;4.662;2023-09-19T08:27:55;7.40;6.65;5.12;3.12;25.02;24.94;24.57;22.75;16.74;0.81
82394;SPS30;72031;51.786;4.662;2023-09-19T08:30:25;6.84;6.15;4.75;2.91;23.33;23.25;22.92;21.25;15.69;0.82
82394;SPS30;72031;51.786;4.662;2023-09-19T08:32:58;7.61;6.85;5.29;3.24;25.99;25.90;25.53;23.67;17.47;0.82
82394;SPS30;72031;51.786;4.662;2023-09-19T08:35:25;6.55;5.91;4.58;2.85;22.83;22.75;22.44;20.86;15.51;0.80
82394;SPS30;72031;51.786;4.662;2023-09-19T08:37:50;7.12;6.42;4.98;3.10;24.84;24.75;24.41;22.71;16.89;0.82
82394;SPS30;72031;51.786;4.662;2023-09-19T08:40:16;6.86;6.20;4.84;3.05;24.47;24.39;24.07;22.45;16.82;0.80
82394;SPS30;72031;51.786;4.662;2023-09-19T08:45:15;7.45;6.71;5.20;3.23;25.89;25.80;25.44;23.65;17.57;0.80
82394;SPS30;72031;51.786;4.662;2023-09-19T08:47:45;7.40;6.67;5.17;3.22;25.77;25.69;25.33;23.55;17.51;0.80
82394;SPS30;72031;51.786;4.662;2023-09-19T08:50:19;7.26;6.52;5.02;3.05;24.43;24.34;23.98;22.19;16.30;0.82
82394;SPS30;72031;51.786;4.662;2023-09-19T08:52:51;7.37;6.62;5.07;3.06;24.52;24.43;24.06;22.23;16.26;0.83
82394;SPS30;72031;51.786;4.662;2023-09-19T08:55:19;7.23;6.54;5.12;3.25;26.07;25.99;25.65;23.97;18.01;0.79
82394;SPS30;72031;51.786;4.662;2023-09-19T08:57:51;6.71;6.08;4.79;3.09;24.73;24.66;24.35;22.82;17.26;0.77
82394;SPS30;72031;51.786;4.662;2023-09-19T09:00:31;7.51;6.74;5.16;3.11;24.93;24.84;24.47;22.60;16.52;0.81
82394;SPS30;72031;51.786;4.662;2023-09-19T09:02:58;6.69;6.03;4.68;2.90;23.24;23.16;22.84;21.23;15.77;0.79
82394;SPS30;72031;51.786;4.662;2023-09-19T09:05:27;6.94;6.28;4.93;3.14;25.17;25.09;24.77;23.16;17.43;0.78
82394;SPS30;72031;51.786;4.662;2023-09-19T09:07:55;7.32;6.60;5.13;3.19;25.56;25.47;25.12;23.37;17.38;0.79
82394;SPS30;72031;51.786;4.662;2023-09-19T09:10:22;7.38;6.66;5.17;3.21;25.75;25.67;25.31;23.54;17.51;0.80
82394;SPS30;72031;51.786;4.662;2023-09-19T09:12:51;7.06;6.36;4.90;3.01;24.12;24.04;23.69;21.97;16.22;0.81
82394;SPS30;72031;51.786;4.662;2023-09-19T09:15:19;7.59;6.80;5.20;3.11;24.94;24.85;24.47;22.56;16.44;0.81
82394;SPS30;72031;51.786;4.662;2023-09-19T09:17:48;7.53;6.76;5.18;3.13;25.05;24.96;24.58;22.71;16.62;0.80
82394;SPS30;72031;51.786;4.662;2023-09-19T09:20:16;7.03;6.34;4.92;3.07;24.57;24.49;24.15;22.47;16.72;0.78
82394;SPS30;72031;51.786;4.662;2023-09-19T09:22:54;6.96;6.27;4.87;3.03;24.31;24.23;23.90;22.23;16.54;0.78
82394;SPS30;72031;51.786;4.662;2023-09-19T09:25:46;6.90;6.20;4.77;2.91;23.30;23.22;22.88;21.18;15.58;0.81
82394;SPS30;72031;51.786;4.662;2023-09-19T09:28:18;7.22;6.49;5.01;3.06;24.55;24.47;24.11;22.35;16.48;0.79
82394;SPS30;72031;51.786;4.662;2023-09-19T09:30:46;6.29;5.68;4.43;2.78;22.30;22.23;21.93;20.45;15.29;0.78
82394;SPS30;72031;51.786;4.662;2023-09-19T09:33:12;6.20;5.62;4.43;2.85;22.80;22.73;22.45;21.02;15.89;0.76